Time;durP1;ratioP1;P1;durP2;ratioP2;P2;SDS_P1;SDS_P2;PMS_P1;PMS_P2;Temp;Humidity;BMP_temperature;BMP_pressure;BME280_temperature;BME280_humidity;BME280_pressure;Samples;Min_cycle;Max_cycle;Signal;HPM_P1;HPM_P2
2024/01/16 00:01:21;;;;;;;6.57;3.40;;;1.10;99.90;;;;;;4974907;28;20098;-64
2024/01/16 00:03:46;;;;;;;5.43;3.03;;;1.10;99.90;;;;;;4961291;28;20046;-65
2024/01/16 00:06:12;;;;;;;5.00;3.50;;;1.10;99.90;;;;;;4978366;28;20031;-64
2024/01/16 00:08:38;;;;;;;4.03;3.35;;;1.10;99.90;;;;;;4978603;28;20034;-64
2024/01/16 00:11:03;;;;;;;4.60;3.35;;;1.10;99.90;;;;;;4978752;28;20102;-65
2024/01/16 00:13:29;;;;;;;7.03;3.35;;;1.00;99.90;;;;;;4979377;28;20426;-64
2024/01/16 00:15:56;;;;;;;5.28;2.65;;;0.90;99.90;;;;;;4981372;28;20026;-65
2024/01/16 00:18:22;;;;;;;4.65;3.17;;;1.00;99.90;;;;;;4965093;28;20390;-65
2024/01/16 00:20:48;;;;;;;5.90;3.50;;;0.90;99.90;;;;;;4982258;28;20038;-66
2024/01/16 00:23:14;;;;;;;5.10;3.28;;;0.90;99.90;;;;;;4980530;28;20030;-65
2024/01/16 00:25:41;;;;;;;6.63;3.22;;;0.80;99.90;;;;;;4978425;28;20419;-64
2024/01/16 00:28:06;;;;;;;7.55;3.22;;;0.80;99.90;;;;;;4960858;28;20121;-64
2024/01/16 00:30:33;;;;;;;4.68;2.95;;;0.80;99.90;;;;;;4978887;28;20427;-64
2024/01/16 00:32:59;;;;;;;5.35;2.70;;;0.80;99.90;;;;;;4978080;28;20023;-65
2024/01/16 00:35:25;;;;;;;4.80;3.20;;;0.80;99.90;;;;;;4978049;28;20033;-64
2024/01/16 00:37:50;;;;;;;4.68;3.25;;;0.70;99.90;;;;;;4978007;28;20082;-65
2024/01/16 00:40:16;;;;;;;5.00;2.92;;;0.70;99.90;;;;;;4978015;28;20042;-64
2024/01/16 00:42:42;;;;;;;5.55;2.95;;;0.60;99.90;;;;;;4977980;28;20027;-64
2024/01/16 00:45:07;;;;;;;4.30;3.08;;;0.70;99.90;;;;;;4977936;28;20138;-63
2024/01/16 00:47:33;;;;;;;6.55;3.20;;;0.80;99.90;;;;;;4978698;28;20035;-63
2024/01/16 00:50:00;;;;;;;4.82;3.20;;;0.80;99.90;;;;;;4961128;28;20054;-64
2024/01/16 00:52:26;;;;;;;6.70;3.80;;;0.80;99.90;;;;;;4960518;28;20467;-64
2024/01/16 00:54:52;;;;;;;4.85;3.03;;;0.80;99.90;;;;;;4978155;28;20038;-64
2024/01/16 00:57:19;;;;;;;5.55;2.95;;;0.80;99.90;;;;;;4977774;28;20035;-64
2024/01/16 00:59:46;;;;;;;5.88;3.28;;;0.90;99.90;;;;;;4959988;28;20122;-64
2024/01/16 01:02:11;;;;;;;6.40;3.90;;;0.90;99.90;;;;;;4960333;28;20375;-64
2024/01/16 01:04:38;;;;;;;6.43;3.33;;;0.90;99.90;;;;;;4978096;28;20163;-64
2024/01/16 01:07:03;;;;;;;6.03;3.45;;;0.90;99.90;;;;;;4960280;28;20386;-64
2024/01/16 01:09:29;;;;;;;4.93;3.40;;;0.90;99.90;;;;;;4960266;28;20023;-64
2024/01/16 01:11:55;;;;;;;5.07;3.15;;;0.90;99.90;;;;;;4977483;28;20026;-64
2024/01/16 01:14:20;;;;;;;6.15;3.05;;;0.90;99.90;;;;;;4977103;28;20493;-64
2024/01/16 01:16:46;;;;;;;5.85;3.53;;;0.90;99.90;;;;;;4959984;28;20039;-64
2024/01/16 01:19:12;;;;;;;4.80;3.50;;;0.90;99.90;;;;;;4977768;28;20434;-64
2024/01/16 01:21:38;;;;;;;5.70;3.30;;;0.80;99.90;;;;;;4977349;28;20027;-63
2024/01/16 01:24:04;;;;;;;4.20;2.97;;;0.90;99.90;;;;;;4977536;28;20090;-63
2024/01/16 01:26:29;;;;;;;4.22;3.38;;;0.90;99.90;;;;;;4959770;28;20030;-64
2024/01/16 01:28:55;;;;;;;6.43;3.50;;;0.90;99.90;;;;;;4976879;28;20022;-64
2024/01/16 01:31:20;;;;;;;3.38;2.75;;;1.00;99.90;;;;;;4977067;28;20031;-64
2024/01/16 01:33:47;;;;;;;5.00;3.50;;;1.00;99.90;;;;;;4976797;28;20042;-64
2024/01/16 01:36:13;;;;;;;5.72;3.17;;;0.90;99.90;;;;;;4976928;28;20138;-64
2024/01/16 01:38:38;;;;;;;5.32;3.30;;;1.00;99.90;;;;;;4977141;28;20478;-64
2024/01/16 01:41:04;;;;;;;4.50;2.90;;;0.90;99.90;;;;;;4977142;28;20371;-64
2024/01/16 01:43:30;;;;;;;5.00;3.17;;;1.00;99.90;;;;;;4976695;28;20490;-64
2024/01/16 01:46:21;;;;;;;5.57;3.20;;;0.80;99.90;;;;;;4976847;28;20038;-63
2024/01/16 01:48:48;;;;;;;5.75;3.42;;;0.90;99.90;;;;;;4977241;28;20038;-64
2024/01/16 01:51:15;;;;;;;3.85;2.78;;;0.90;99.90;;;;;;4959920;28;20038;-63
2024/01/16 01:53:43;;;;;;;3.65;2.80;;;0.90;99.90;;;;;;4977061;28;20026;-64
2024/01/16 01:56:12;;;;;;;3.92;3.08;;;1.00;99.90;;;;;;4977194;28;20062;-64
2024/01/16 01:58:38;;;;;;;;;;;0.90;99.90;;;;;;4977010;28;20061;-64
2024/01/16 02:01:05;;;;;;;5.28;2.88;;;1.00;99.90;;;;;;4959565;28;19992;-64
2024/01/16 02:03:45;;;;;;;4.28;3.00;;;1.00;99.90;;;;;;4976247;28;20065;-64
2024/01/16 02:06:16;;;;;;;7.78;3.33;;;1.00;99.90;;;;;;4976297;28;20027;-64
2024/01/16 02:08:41;;;;;;;4.38;2.90;;;0.90;99.90;;;;;;4976553;28;20046;-63
2024/01/16 02:11:08;;;;;;;4.85;2.40;;;0.90;99.90;;;;;;4958959;28;20074;-63
2024/01/16 02:13:34;;;;;;;4.20;2.42;;;0.90;99.90;;;;;;4976297;28;20070;-63
2024/01/16 02:16:00;;;;;;;5.03;3.05;;;0.90;99.90;;;;;;4976522;28;20030;-64
2024/01/16 02:18:26;;;;;;;3.47;2.75;;;0.90;99.90;;;;;;4959066;28;20037;-64
2024/01/16 02:20:52;;;;;;;3.85;2.60;;;0.90;99.90;;;;;;4976214;28;20031;-64
2024/01/16 02:23:26;;;;;;;10.93;3.70;;;0.90;99.90;;;;;;4958813;28;20471;-64
2024/01/16 02:25:52;;;;;;;6.30;2.90;;;0.90;99.90;;;;;;4958452;28;20031;-64
2024/01/16 02:28:18;;;;;;;5.28;3.25;;;0.90;99.90;;;;;;4976041;28;20030;-64
2024/01/16 02:30:44;;;;;;;3.50;2.50;;;0.90;99.90;;;;;;4976305;28;20438;-63
2024/01/16 02:33:09;;;;;;;5.75;3.00;;;0.90;99.90;;;;;;4958665;28;20053;-64
2024/01/16 02:35:35;;;;;;;3.08;2.42;;;0.80;99.90;;;;;;4976045;28;20519;-64
2024/01/16 02:38:00;;;;;;;4.97;2.80;;;0.80;99.90;;;;;;4975673;28;20034;-64
2024/01/16 02:40:26;;;;;;;4.03;2.88;;;0.90;99.90;;;;;;4975516;28;20030;-64
2024/01/16 02:42:52;;;;;;;4.45;2.72;;;0.80;99.90;;;;;;4975807;28;20490;-64
2024/01/16 02:45:18;;;;;;;5.50;2.45;;;0.80;99.90;;;;;;4977358;28;20101;-64
2024/01/16 02:47:43;;;;;;;4.20;2.55;;;0.70;99.90;;;;;;4976044;28;20035;-64
2024/01/16 02:50:13;;;;;;;7.30;4.15;;;0.70;99.90;;;;;;4975465;28;20023;-64
2024/01/16 02:52:39;;;;;;;4.78;2.90;;;0.70;99.90;;;;;;4976399;28;20049;-63
2024/01/16 02:55:05;;;;;;;4.85;2.88;;;0.70;99.90;;;;;;4977326;28;20027;-65
2024/01/16 02:57:31;;;;;;;12.55;3.80;;;0.70;99.90;;;;;;4976719;28;20035;-65
2024/01/16 02:59:56;;;;;;;5.50;3.05;;;0.60;99.90;;;;;;4975699;28;20038;-64
2024/01/16 03:02:23;;;;;;;8.20;4.18;;;0.50;99.90;;;;;;4976053;28;20030;-64
2024/01/16 03:04:49;;;;;;;4.93;2.90;;;0.50;99.90;;;;;;4958195;28;20086;-63
2024/01/16 03:07:15;;;;;;;6.88;4.10;;;0.60;99.90;;;;;;4975333;28;20027;-63
2024/01/16 03:09:41;;;;;;;6.93;3.53;;;0.60;99.90;;;;;;4958196;28;20093;-64
2024/01/16 03:12:06;;;;;;;4.45;3.08;;;0.70;99.90;;;;;;4975701;28;20031;-64
2024/01/16 03:14:36;;;;;;;4.47;3.00;;;0.70;99.90;;;;;;4975265;28;20439;-64
2024/01/16 03:17:03;;;;;;;6.13;2.72;;;0.60;99.90;;;;;;4958349;28;20062;-64
2024/01/16 03:19:28;;;;;;;5.50;2.85;;;0.70;99.90;;;;;;4957944;28;20086;-64
2024/01/16 03:21:54;;;;;;;4.32;2.80;;;0.70;99.90;;;;;;4975177;28;20026;-64
2024/01/16 03:24:20;;;;;;;8.43;3.50;;;0.70;99.90;;;;;;4957831;28;20022;-64
2024/01/16 03:26:45;;;;;;;5.70;2.90;;;0.70;99.90;;;;;;4975211;28;20451;-64
2024/01/16 03:29:11;;;;;;;4.63;3.28;;;0.70;99.90;;;;;;4975405;28;20463;-64
2024/01/16 03:31:37;;;;;;;4.35;2.72;;;0.60;99.90;;;;;;4975063;28;20027;-64
2024/01/16 03:34:03;;;;;;;6.47;3.35;;;0.60;99.90;;;;;;4957665;28;20027;-64
2024/01/16 03:36:28;;;;;;;3.67;2.72;;;0.60;99.90;;;;;;4974285;28;20109;-64
2024/01/16 03:38:54;;;;;;;7.20;2.90;;;0.60;99.90;;;;;;4957554;28;20030;-64
2024/01/16 03:41:19;;;;;;;6.22;3.15;;;0.70;99.90;;;;;;4975363;28;20031;-64
2024/01/16 03:43:45;;;;;;;4.50;2.45;;;0.60;99.90;;;;;;4975027;28;20023;-63
2024/01/16 03:46:11;;;;;;;6.43;3.25;;;0.60;99.90;;;;;;4975194;28;20035;-64
2024/01/16 03:48:37;;;;;;;6.22;2.65;;;0.60;99.90;;;;;;4975012;28;20058;-67
2024/01/16 03:51:03;;;;;;;4.50;2.20;;;0.60;99.90;;;;;;4975148;28;20093;-64
2024/01/16 03:53:28;;;;;;;5.80;2.42;;;0.60;99.90;;;;;;4974888;28;20031;-64
2024/01/16 03:55:54;;;;;;;3.05;2.40;;;0.50;99.90;;;;;;4974604;28;20027;-64
2024/01/16 03:58:20;;;;;;;5.30;2.60;;;0.50;99.90;;;;;;4957483;28;20426;-64
2024/01/16 04:00:46;;;;;;;5.10;2.65;;;0.70;99.90;;;;;;4957468;28;20031;-64
2024/01/16 04:03:13;;;;;;;5.07;2.58;;;0.90;99.90;;;;;;4974843;28;20054;-64
2024/01/16 04:05:39;;;;;;;4.55;2.70;;;0.50;99.90;;;;;;4975002;28;20030;-64
2024/01/16 04:08:04;;;;;;;3.85;2.50;;;0.50;99.90;;;;;;4957805;28;20097;-64
2024/01/16 04:10:30;;;;;;;4.35;2.22;;;0.40;99.90;;;;;;4957285;28;20082;-63
2024/01/16 04:13:00;;;;;;;4.43;2.22;;;0.40;99.90;;;;;;4974363;28;20106;-64
2024/01/16 04:15:26;;;;;;;3.65;2.20;;;0.40;99.90;;;;;;4974845;28;20026;-63
2024/01/16 04:17:52;;;;;;;4.70;2.70;;;0.30;99.90;;;;;;4957269;28;20042;-64
2024/01/16 04:20:17;;;;;;;4.05;2.63;;;0.30;99.90;;;;;;4974853;28;20023;-64
2024/01/16 04:22:43;;;;;;;5.45;2.95;;;0.60;99.90;;;;;;4975193;28;20025;-64
2024/01/16 04:25:09;;;;;;;4.68;2.30;;;0.30;99.90;;;;;;4974595;28;20027;-64
2024/01/16 04:27:35;;;;;;;3.80;2.75;;;0.30;99.90;;;;;;4974806;28;20031;-64
2024/01/16 04:30:01;;;;;;;6.22;2.53;;;0.30;99.90;;;;;;4974596;28;20031;-64
2024/01/16 04:32:26;;;;;;;3.80;2.45;;;0.40;99.90;;;;;;4974490;28;20094;-63
2024/01/16 04:34:52;;;;;;;3.50;2.30;;;0.30;99.90;;;;;;4974794;28;20081;-64
2024/01/16 04:37:17;;;;;;;6.25;2.20;;;0.30;99.90;;;;;;4974618;28;20450;-63
2024/01/16 04:39:43;;;;;;;5.57;2.47;;;0.40;99.90;;;;;;4974240;28;20038;-64
2024/01/16 04:42:09;;;;;;;5.88;2.33;;;0.40;99.90;;;;;;4975998;28;20034;-64
2024/01/16 04:44:34;;;;;;;3.30;1.92;;;0.40;99.90;;;;;;4974889;28;20398;-64
2024/01/16 04:47:00;;;;;;;4.22;2.15;;;0.30;99.90;;;;;;4957390;28;20368;-64
2024/01/16 04:49:26;;;;;;;3.92;2.40;;;0.30;99.90;;;;;;4977341;28;20482;-64
2024/01/16 04:51:51;;;;;;;5.28;2.20;;;0.30;99.90;;;;;;4977855;28;20038;-63
2024/01/16 04:54:17;;;;;;;4.47;2.10;;;0.30;99.90;;;;;;4977652;28;20030;-64
2024/01/16 04:56:43;;;;;;;6.55;2.25;;;0.40;99.90;;;;;;4977878;28;20126;-64
2024/01/16 04:59:08;;;;;;;5.82;2.20;;;0.30;99.90;;;;;;4960358;28;20078;-64
2024/01/16 05:01:34;;;;;;;3.58;1.90;;;0.40;99.90;;;;;;4977940;28;20086;-64
2024/01/16 05:04:00;;;;;;;4.95;2.35;;;0.40;99.90;;;;;;4960292;28;20047;-64
2024/01/16 05:06:25;;;;;;;3.47;1.83;;;0.40;99.90;;;;;;4977594;28;20034;-64
2024/01/16 05:08:51;;;;;;;3.65;1.77;;;0.40;99.90;;;;;;4960234;28;20027;-63
2024/01/16 05:11:16;;;;;;;3.83;1.85;;;0.50;99.90;;;;;;4977168;28;20030;-64
2024/01/16 05:13:42;;;;;;;3.00;1.95;;;0.50;99.90;;;;;;4977413;28;20038;-66
2024/01/16 05:16:08;;;;;;;5.65;2.08;;;0.60;99.90;;;;;;4977383;28;20452;-63
2024/01/16 05:18:33;;;;;;;2.35;1.27;;;0.60;99.90;;;;;;4977313;28;20177;-64
2024/01/16 05:20:59;;;;;;;5.53;1.17;;;0.70;99.90;;;;;;4977418;28;20022;-64
2024/01/16 05:23:25;;;;;;;2.65;1.25;;;0.80;99.90;;;;;;4959879;28;20146;-64
2024/01/16 05:25:51;;;;;;;2.17;1.20;;;0.90;99.90;;;;;;4977655;28;20101;-65
2024/01/16 05:28:16;;;;;;;2.05;1.02;;;0.80;99.90;;;;;;4977419;28;20038;-64
2024/01/16 05:30:42;;;;;;;5.15;1.48;;;0.90;99.90;;;;;;4977166;28;20528;-65
2024/01/16 05:33:08;;;;;;;4.50;1.30;;;0.90;99.90;;;;;;4960136;28;20053;-63
2024/01/16 05:35:34;;;;;;;3.35;1.40;;;0.90;99.90;;;;;;4977153;28;20043;-64
2024/01/16 05:38:00;;;;;;;11.25;2.00;;;0.90;99.90;;;;;;4976757;28;20384;-64
2024/01/16 05:40:26;;;;;;;11.40;1.23;;;0.90;99.90;;;;;;4959676;28;20447;-64
2024/01/16 05:42:51;;;;;;;6.85;1.52;;;0.90;99.90;;;;;;4976743;28;20033;-64
2024/01/16 05:45:17;;;;;;;4.53;1.33;;;0.90;99.90;;;;;;4977732;28;20027;-72
2024/01/16 05:47:43;;;;;;;7.70;0.98;;;0.80;99.90;;;;;;4979063;28;20129;-65
2024/01/16 05:50:10;;;;;;;2.92;1.40;;;0.90;99.90;;;;;;4979163;28;20519;-65
2024/01/16 05:52:36;;;;;;;4.43;1.20;;;0.80;99.90;;;;;;4979267;28;20034;-64
2024/01/16 05:55:02;;;;;;;5.57;1.15;;;0.80;99.90;;;;;;4978801;28;20027;-65
2024/01/16 05:57:31;;;;;;;3.55;0.90;;;0.80;99.90;;;;;;4959585;28;20034;-64
2024/01/16 05:59:57;;;;;;;7.53;1.10;;;1.00;99.90;;;;;;4975962;28;20035;-64
2024/01/16 06:02:22;;;;;;;5.55;1.67;;;0.80;99.70;;;;;;4976546;28;20386;-64
2024/01/16 06:04:48;;;;;;;3.55;1.38;;;0.80;99.60;;;;;;4976293;28;20490;-64
2024/01/16 06:07:14;;;;;;;9.27;1.40;;;0.80;99.50;;;;;;4977461;28;20487;-64
2024/01/16 06:09:40;;;;;;;6.43;1.08;;;0.90;99.40;;;;;;4959462;28;20463;-64
2024/01/16 06:12:07;;;;;;;7.38;1.10;;;0.90;99.30;;;;;;4976437;28;20023;-64
2024/01/16 06:14:34;;;;;;;6.32;1.25;;;0.90;99.20;;;;;;4976972;28;20038;-63
2024/01/16 06:17:01;;;;;;;3.55;0.90;;;0.90;99.10;;;;;;4958891;28;20047;-64
2024/01/16 06:19:26;;;;;;;4.68;1.23;;;0.90;99.20;;;;;;4958862;28;20027;-64
2024/01/16 06:21:52;;;;;;;1.88;0.82;;;0.90;99.10;;;;;;4976654;28;20475;-64
2024/01/16 06:24:18;;;;;;;5.70;1.42;;;0.80;99.10;;;;;;4976368;28;20033;-64
2024/01/16 06:26:44;;;;;;;1.85;0.77;;;0.80;98.90;;;;;;4976317;28;20031;-65
2024/01/16 06:29:10;;;;;;;8.55;1.08;;;0.80;99.10;;;;;;4976593;28;20175;-64
2024/01/16 06:31:35;;;;;;;4.45;1.42;;;0.80;99.10;;;;;;4976400;28;20077;-64
2024/01/16 06:34:01;;;;;;;5.95;1.45;;;0.80;99.00;;;;;;4976328;28;20027;-64
2024/01/16 06:36:26;;;;;;;3.22;1.10;;;0.80;98.90;;;;;;4976138;28;20038;-65
2024/01/16 06:38:52;;;;;;;7.88;1.13;;;0.80;99.00;;;;;;4975556;28;20062;-64
2024/01/16 06:41:18;;;;;;;8.38;1.15;;;0.80;98.90;;;;;;4976116;28;20030;-64
2024/01/16 06:43:43;;;;;;;2.08;0.95;;;0.80;98.90;;;;;;4976153;28;20031;-64
2024/01/16 06:46:10;;;;;;;2.45;0.80;;;0.80;98.80;;;;;;4976041;28;20031;-64
2024/01/16 06:48:39;;;;;;;9.00;1.02;;;0.80;98.90;;;;;;4975508;28;20471;-64
2024/01/16 06:51:05;;;;;;;3.17;1.60;;;0.80;98.80;;;;;;4975578;28;20475;-64
2024/01/16 06:53:31;;;;;;;4.78;0.70;;;0.80;98.70;;;;;;4975569;28;20039;-65
2024/01/16 06:55:56;;;;;;;4.22;1.30;;;0.80;98.60;;;;;;4975888;28;20022;-64
2024/01/16 06:58:22;;;;;;;7.95;1.48;;;0.90;98.60;;;;;;4975468;28;20039;-64
2024/01/16 07:00:48;;;;;;;4.07;1.30;;;0.90;98.50;;;;;;4975208;28;20026;-64
2024/01/16 07:03:14;;;;;;;7.97;1.35;;;0.80;98.40;;;;;;4975097;28;20050;-64
2024/01/16 07:05:40;;;;;;;4.32;0.93;;;0.90;98.30;;;;;;4975569;28;20034;-64
2024/01/16 07:08:07;;;;;;;2.65;1.00;;;0.90;98.00;;;;;;4975034;28;20407;-64
2024/01/16 07:10:33;;;;;;;2.40;0.90;;;0.90;98.00;;;;;;4975320;28;20534;-64
2024/01/16 07:12:59;;;;;;;2.90;1.50;;;0.90;98.10;;;;;;4957942;28;20023;-64
2024/01/16 07:15:25;;;;;;;3.72;1.00;;;0.90;97.90;;;;;;4975280;28;20374;-64
2024/01/16 07:17:51;;;;;;;2.22;0.75;;;0.90;97.90;;;;;;4974964;28;20492;-64
2024/01/16 07:20:16;;;;;;;5.15;1.45;;;0.90;97.90;;;;;;4975229;28;20054;-65
2024/01/16 07:22:42;;;;;;;2.58;0.85;;;0.90;97.70;;;;;;4975281;28;20038;-64
2024/01/16 07:25:08;;;;;;;3.03;0.98;;;1.00;97.80;;;;;;4976114;28;20019;-65
2024/01/16 07:27:34;;;;;;;2.60;1.02;;;1.00;97.60;;;;;;4976028;28;20026;-64
2024/01/16 07:30:00;;;;;;;5.15;1.10;;;0.90;97.80;;;;;;4958271;28;20034;-69
2024/01/16 07:32:26;;;;;;;1.25;0.57;;;0.90;97.70;;;;;;4978137;28;20408;-65
2024/01/16 07:34:52;;;;;;;2.63;0.70;;;1.00;97.50;;;;;;4958385;28;20147;-64
2024/01/16 07:37:18;;;;;;;6.15;1.23;;;1.00;97.40;;;;;;4976601;28;20066;-65
2024/01/16 07:39:44;;;;;;;5.95;1.35;;;1.10;97.50;;;;;;4976411;28;20026;-65
2024/01/16 07:42:10;;;;;;;7.15;1.08;;;1.10;97.30;;;;;;4975884;28;20034;-65
2024/01/16 07:44:36;;;;;;;1.95;0.85;;;1.10;97.20;;;;;;4958116;28;20041;-65
2024/01/16 07:47:02;;;;;;;7.07;1.20;;;1.20;96.80;;;;;;4958365;28;20042;-64
2024/01/16 07:49:27;;;;;;;4.68;0.77;;;1.20;96.80;;;;;;4975460;28;20035;-64
2024/01/16 07:51:53;;;;;;;7.75;1.23;;;1.30;96.80;;;;;;4975057;28;20031;-64
2024/01/16 07:54:19;;;;;;;3.50;1.50;;;1.30;96.80;;;;;;4957774;28;20034;-65
2024/01/16 07:56:45;;;;;;;3.50;0.80;;;1.30;96.70;;;;;;4975002;28;20023;-64
2024/01/16 07:59:10;;;;;;;2.17;0.70;;;1.30;96.50;;;;;;4957666;28;20435;-65
2024/01/16 08:01:37;;;;;;;5.38;0.80;;;1.30;96.40;;;;;;4974984;28;20038;-64
2024/01/16 08:04:03;;;;;;;4.00;1.23;;;1.30;96.20;;;;;;4957376;28;20062;-65
2024/01/16 08:06:29;;;;;;;3.13;0.88;;;1.40;96.20;;;;;;4974944;28;20058;-64
2024/01/16 08:08:55;;;;;;;1.10;0.57;;;1.40;96.00;;;;;;4974760;28;20027;-64
2024/01/16 08:11:21;;;;;;;2.50;0.80;;;1.50;95.60;;;;;;4974937;28;20038;-64
2024/01/16 08:13:47;;;;;;;3.92;0.98;;;1.60;95.80;;;;;;4974741;28;20086;-64
2024/01/16 08:16:12;;;;;;;2.75;0.93;;;1.90;95.00;;;;;;4974415;28;20035;-65
2024/01/16 08:18:38;;;;;;;4.68;1.23;;;2.20;94.50;;;;;;4974793;28;20035;-65
2024/01/16 08:21:04;;;;;;;1.17;0.77;;;2.40;93.90;;;;;;4957283;28;20078;-65
2024/01/16 08:23:29;;;;;;;2.60;0.85;;;2.60;93.20;;;;;;4975720;28;20106;-65
2024/01/16 08:25:55;;;;;;;4.50;1.20;;;2.70;93.10;;;;;;4978742;28;20058;-65
2024/01/16 08:28:24;;;;;;;9.55;1.05;;;2.80;92.80;;;;;;4978373;28;20034;-65
2024/01/16 08:30:49;;;;;;;13.07;1.42;;;3.10;92.40;;;;;;4977938;28;20023;-65
2024/01/16 08:33:15;;;;;;;2.92;0.70;;;3.20;91.50;;;;;;4978202;28;20066;-65
2024/01/16 08:35:40;;;;;;;5.28;1.20;;;3.40;91.00;;;;;;4977826;28;20054;-65
2024/01/16 08:38:06;;;;;;;3.25;0.85;;;3.60;90.50;;;;;;4960406;28;20387;-65
2024/01/16 08:40:32;;;;;;;5.97;0.88;;;3.70;89.00;;;;;;4978330;28;20031;-65
2024/01/16 08:42:58;;;;;;;3.58;1.65;;;3.80;88.90;;;;;;4977962;28;20059;-65
2024/01/16 08:45:25;;;;;;;4.13;0.77;;;3.90;88.30;;;;;;4977924;28;20030;-65
2024/01/16 08:47:51;;;;;;;1.95;0.73;;;3.90;87.10;;;;;;4978054;28;20031;-65
2024/01/16 08:50:17;;;;;;;4.65;1.17;;;4.20;86.70;;;;;;4977870;28;20110;-64
2024/01/16 08:52:42;;;;;;;1.80;0.50;;;4.30;85.70;;;;;;4977489;28;20041;-62
2024/01/16 08:55:09;;;;;;;2.20;0.90;;;4.10;83.50;;;;;;4960434;28;20029;-65
2024/01/16 08:57:37;;;;;;;2.88;0.82;;;4.30;84.10;;;;;;4977693;28;20031;-65
2024/01/16 09:00:06;;;;;;;6.47;0.80;;;4.40;83.60;;;;;;4960503;28;20038;-65
2024/01/16 09:02:31;;;;;;;12.73;1.30;;;4.60;82.20;;;;;;4977903;28;20019;-65
2024/01/16 09:04:58;;;;;;;3.88;1.48;;;4.50;81.90;;;;;;4960316;28;20121;-65
2024/01/16 09:07:25;;;;;;;3.20;0.60;;;4.80;81.00;;;;;;4960311;28;20118;-65
2024/01/16 09:09:50;;;;;;;2.53;1.00;;;4.70;80.90;;;;;;4977191;28;20030;-65
2024/01/16 09:12:16;;;;;;;5.32;1.50;;;4.60;81.40;;;;;;4960112;28;20027;-64
2024/01/16 09:14:42;;;;;;;1.80;0.70;;;5.10;80.30;;;;;;4960046;28;20034;-65
2024/01/16 09:17:07;;;;;;;7.95;0.93;;;5.20;77.90;;;;;;4959934;28;20042;-65
2024/01/16 09:19:33;;;;;;;3.65;1.20;;;5.60;78.00;;;;;;4977228;28;20451;-65
2024/01/16 09:21:59;;;;;;;4.10;1.08;;;5.50;76.80;;;;;;4977573;28;20505;-65
2024/01/16 09:24:25;;;;;;;3.03;1.20;;;5.50;77.60;;;;;;4977352;28;20111;-65
2024/01/16 09:26:50;;;;;;;1.55;0.98;;;5.40;77.10;;;;;;4977895;28;20023;-65
2024/01/16 09:29:16;;;;;;;3.83;1.08;;;5.30;76.80;;;;;;4977245;28;20030;-65
2024/01/16 09:31:42;;;;;;;4.10;1.33;;;5.40;76.30;;;;;;4977395;28;20030;-65
2024/01/16 09:34:07;;;;;;;3.38;0.80;;;5.70;75.00;;;;;;4976522;28;20031;-65
2024/01/16 09:36:35;;;;;;;3.20;0.95;;;5.60;75.20;;;;;;4976058;28;20150;-65
2024/01/16 09:39:02;;;;;;;6.10;1.00;;;5.90;74.70;;;;;;4959579;28;20023;-65
2024/01/16 09:41:28;;;;;;;5.50;1.00;;;5.70;74.80;;;;;;4977037;28;20102;-65
2024/01/16 09:43:54;;;;;;;4.15;1.20;;;5.90;74.50;;;;;;4976918;28;20105;-65
2024/01/16 09:46:25;;;;;;;10.73;1.33;;;6.50;71.90;;;;;;4959500;28;20031;-65
2024/01/16 09:48:56;;;;;;;3.58;1.08;;;6.60;71.30;;;;;;4976610;28;20031;-65
2024/01/16 09:51:21;;;;;;;4.90;1.05;;;6.20;71.60;;;;;;4959922;28;20062;-65
2024/01/16 09:53:47;;;;;;;1.83;1.00;;;5.80;72.50;;;;;;4959946;28;20050;-65
2024/01/16 09:56:15;;;;;;;4.18;1.30;;;5.90;72.30;;;;;;4959332;28;20027;-65
2024/01/16 09:58:43;;;;;;;7.07;1.60;;;6.40;71.90;;;;;;4976590;28;20481;-65
2024/01/16 10:01:09;;;;;;;3.53;1.08;;;6.60;70.60;;;;;;4959451;28;20031;-65
2024/01/16 10:03:35;;;;;;;8.65;1.30;;;6.90;70.10;;;;;;4958958;28;20058;-65
2024/01/16 10:06:07;;;;;;;5.88;0.85;;;7.30;69.40;;;;;;4959624;28;20050;-65
2024/01/16 10:08:33;;;;;;;2.75;1.00;;;7.70;67.20;;;;;;4976697;28;20109;-65
2024/01/16 10:10:59;;;;;;;11.80;1.50;;;6.60;67.70;;;;;;4976711;28;20077;-65
2024/01/16 10:13:26;;;;;;;5.28;1.25;;;5.90;70.30;;;;;;4976511;28;20022;-65
2024/01/16 10:15:54;;;;;;;2.67;1.33;;;5.80;71.40;;;;;;4959073;28;20379;-64
2024/01/16 10:18:24;;;;;;;3.70;0.90;;;5.30;71.40;;;;;;4976360;28;20066;-65
2024/01/16 10:20:50;;;;;;;8.15;1.15;;;5.20;72.70;;;;;;4958796;28;20471;-65
2024/01/16 10:23:35;;;;;;;4.68;0.90;;;5.10;72.70;;;;;;4976240;28;20054;-64
2024/01/16 10:26:11;;;;;;;6.80;1.05;;;5.00;73.40;;;;;;4975974;28;20027;-64
2024/01/16 10:28:39;;;;;;;3.72;1.25;;;5.00;72.20;;;;;;4976206;28;20085;-65
2024/01/16 10:31:06;;;;;;;2.67;0.77;;;5.00;72.60;;;;;;4975805;28;20027;-65
2024/01/16 10:33:32;;;;;;;2.90;1.08;;;4.90;73.40;;;;;;4958602;28;20033;-65
2024/01/16 10:36:16;;;;;;;4.40;1.65;;;4.80;73.20;;;;;;4976003;28;20033;-65
2024/01/16 10:38:43;;;;;;;4.00;0.85;;;4.90;73.50;;;;;;4975760;28;20060;-65
2024/01/16 10:41:10;;;;;;;9.23;1.00;;;4.90;73.10;;;;;;4975828;28;20375;-65
2024/01/16 10:43:36;;;;;;;4.00;1.17;;;4.80;73.80;;;;;;4975769;28;20066;-64
2024/01/16 10:46:11;;;;;;;6.22;1.80;;;4.80;73.90;;;;;;4975352;28;20031;-65
2024/01/16 10:48:39;;;;;;;2.40;1.10;;;5.00;74.20;;;;;;4975896;28;20030;-65
2024/01/16 10:51:07;;;;;;;3.10;0.77;;;5.20;72.40;;;;;;4975812;28;20027;-65
2024/01/16 10:53:33;;;;;;;7.05;0.90;;;5.00;72.40;;;;;;4975667;28;20038;-65
2024/01/16 10:56:01;;;;;;;3.65;1.05;;;5.20;72.60;;;;;;4975823;28;20034;-65
2024/01/16 10:58:31;;;;;;;4.07;1.10;;;5.50;72.60;;;;;;4958357;28;20081;-65
2024/01/16 11:00:57;;;;;;;10.65;1.23;;;5.70;70.80;;;;;;4975477;28;20027;-65
2024/01/16 11:03:38;;;;;;;3.72;1.10;;;5.80;71.30;;;;;;4957932;28;20081;-65
2024/01/16 11:06:06;;;;;;;5.53;0.95;;;5.90;70.70;;;;;;4958099;28;20022;-65
2024/01/16 11:08:33;;;;;;;2.53;1.23;;;6.30;69.90;;;;;;4958039;28;20026;-65
2024/01/16 11:11:03;;;;;;;4.35;1.05;;;6.90;68.80;;;;;;4975268;28;20031;-65
2024/01/16 11:13:33;;;;;;;3.83;1.05;;;7.60;66.00;;;;;;4975381;28;20471;-65
2024/01/16 11:16:00;;;;;;;1.92;0.75;;;8.10;65.10;;;;;;4975394;28;20031;-65
2024/01/16 11:18:29;;;;;;;2.97;0.93;;;8.40;63.00;;;;;;4957794;28;20035;-65
2024/01/16 11:20:57;;;;;;;2.53;0.77;;;8.70;63.10;;;;;;4975428;28;20034;-65
2024/01/16 11:23:23;;;;;;;3.90;0.80;;;8.80;60.00;;;;;;4975158;28;20031;-65
2024/01/16 11:25:49;;;;;;;3.17;1.02;;;9.10;60.00;;;;;;4975108;28;20019;-65
2024/01/16 11:28:15;;;;;;;4.35;0.82;;;9.20;58.80;;;;;;4975276;28;20037;-65
2024/01/16 11:30:45;;;;;;;2.50;0.90;;;9.00;58.20;;;;;;4957765;28;20026;-65
2024/01/16 11:33:32;;;;;;;4.68;1.13;;;9.30;58.20;;;;;;4975099;28;20463;-65
2024/01/16 11:35:58;;;;;;;7.57;0.75;;;9.40;57.80;;;;;;4957690;28;20478;-65
2024/01/16 11:38:26;;;;;;;14.38;1.10;;;9.40;57.00;;;;;;4957578;28;20045;-65
2024/01/16 11:40:52;;;;;;;1.17;0.55;;;9.70;56.50;;;;;;4957639;28;20041;-65
2024/01/16 11:43:36;;;;;;;2.67;0.50;;;9.40;55.60;;;;;;4975239;28;20030;-65
2024/01/16 11:46:07;;;;;;;5.53;0.95;;;9.30;54.90;;;;;;4957938;28;20379;-65
2024/01/16 11:48:33;;;;;;;8.07;0.85;;;8.90;55.30;;;;;;4958353;28;20046;-65
2024/01/16 11:50:59;;;;;;;4.50;0.63;;;9.00;56.10;;;;;;4958550;28;20034;-66
2024/01/16 11:53:33;;;;;;;2.38;0.70;;;9.60;54.30;;;;;;4975511;28;20053;-65
2024/01/16 11:56:20;;;;;;;4.18;0.80;;;9.40;54.30;;;;;;4975021;28;20038;-65
2024/01/16 11:59:13;;;;;;;5.30;0.80;;;9.70;54.10;;;;;;4959762;28;20401;-65
2024/01/16 12:01:41;;;;;;;3.33;0.68;;;8.90;54.70;;;;;;4962036;28;20027;-65
2024/01/16 12:04:09;;;;;;;2.70;0.47;;;7.30;57.70;;;;;;4979555;28;20126;-65
2024/01/16 12:06:36;;;;;;;6.80;1.00;;;7.40;59.00;;;;;;4962754;28;20522;-65
2024/01/16 12:09:14;;;;;;;11.30;1.00;;;8.10;58.30;;;;;;4979311;28;20027;-65
2024/01/16 12:11:43;;;;;;;4.82;1.00;;;8.20;57.30;;;;;;4979151;28;20026;-65
2024/01/16 12:14:09;;;;;;;6.35;0.65;;;8.80;55.60;;;;;;4980101;28;20027;-66
2024/01/16 12:16:34;;;;;;;2.88;0.60;;;8.80;54.30;;;;;;4980468;28;20038;-66
2024/01/16 12:19:10;;;;;;;2.80;0.98;;;8.20;54.80;;;;;;4980553;28;20133;-69
2024/01/16 12:21:43;;;;;;;2.88;0.60;;;7.80;55.20;;;;;;4980254;28;20114;-66
2024/01/16 12:24:10;;;;;;;2.58;0.30;;;7.60;56.00;;;;;;4962804;28;20455;-65
2024/01/16 12:26:37;;;;;;;5.03;0.60;;;7.30;55.30;;;;;;4962330;28;20031;-66
2024/01/16 12:29:03;;;;;;;5.43;0.75;;;6.90;56.30;;;;;;4980079;28;20479;-66
2024/01/16 12:31:29;;;;;;;2.90;0.35;;;6.80;56.60;;;;;;4979201;28;20086;-68
2024/01/16 12:34:08;;;;;;;3.50;0.50;;;6.80;57.00;;;;;;4962036;28;20475;-66
2024/01/16 12:36:34;;;;;;;4.55;0.32;;;6.90;57.30;;;;;;4979355;28;20037;-65
2024/01/16 12:39:00;;;;;;;5.43;0.40;;;6.40;58.00;;;;;;4979017;28;20129;-65
2024/01/16 12:41:30;;;;;;;1.50;0.47;;;6.30;58.30;;;;;;4978366;28;20034;-65
2024/01/16 12:43:56;;;;;;;3.40;0.47;;;6.40;58.30;;;;;;4960669;28;20082;-65
2024/01/16 12:46:21;;;;;;;3.50;0.60;;;6.10;57.10;;;;;;4978610;28;20034;-65
2024/01/16 12:48:47;;;;;;;10.60;0.80;;;5.70;59.20;;;;;;4978613;28;20058;-65
2024/01/16 12:51:24;;;;;;;3.67;1.15;;;5.60;58.60;;;;;;4960474;28;20031;-65
2024/01/16 12:53:49;;;;;;;2.22;0.45;;;5.70;58.80;;;;;;4978007;28;20053;-65
2024/01/16 12:56:20;;;;;;;4.78;0.70;;;5.70;58.70;;;;;;4977903;28;20451;-65